Startpagina
METAR-TAF:

METAR-TAF

Vliegvelden :

Southampton Airport

Southampton, Engeland

breedte: 50-54N, lengte: 001-24W, hoogte: 9 m

Actueel weer

Dit bericht is 16 uur en het 49 minuten geleden gemaakt, om 12:50 UTC
Wind 7 kt uit het noordoosten, variërend tussen het noorden en het oosten
Temperatuur 24°C
Vochtigheid 38%
Druk 1022 hPa
Zicht 10 km of meer
Weinig wolken op 4800 ft

METAR: EGHI 011250Z 04007KT 360V090 9999 FEW048 24/09 Q1022

Tijdstip: 06:39 (05:39 UTC)

Verwachting

Dit bericht is 15 uur en het 40 minuten geleden gemaakt, om 13:59 UTC
Verwachting geldig van 01 om 15 UTC tot 01 om 24 UTC
Wind 10 kt uit het oostnoordoosten
Zicht 10 km of meer
geen wolken onder 1500 m en geen cumulonimbus
Tijdelijke
van 01 om 15 UTC tot 01 om 18 UTC
Wind 6 kt uit het zuidzuidoosten

TAF: EGHI 011359Z 0115/0124 06010KT CAVOK TEMPO 0115/0118 15006KT

Waarnemingen en weersverwachtingen van meer dan 4000 vliegvelden (METAR en TAF).

De beschikbare stations zijn de gele en rode punten op de kaart.

Ga met uw muis naar het station om de naam te zien.

Klik dan om waarnemingen en weersverwachtingen te zien.

kaart wijzigen: klik op de groene knoppen met een zwart kruis om in te zoomen, op de groene knop met een streepje om uit te zoomen of op de groene pijlen voor aangrenzende kaarten.


METAR-TAF: